Time;durP1;ratioP1;P1;durP2;ratioP2;P2;SDS_P1;SDS_P2;PMS_P1;PMS_P2;Temp;Humidity;BMP_temperature;BMP_pressure;BME280_temperature;BME280_humidity;BME280_pressure;Samples;Min_cycle;Max_cycle;Signal;HPM_P1;HPM_P2
2022/11/11 00:01:30;;;;;;;1999.90;999.90;;;;;;;9.17;100.00;99573.22;5112042;28;20125;-75
2022/11/11 00:03:56;;;;;;;1999.90;999.90;;;;;;;9.18;100.00;99577.59;5111268;28;20034;-74
2022/11/11 00:06:21;;;;;;;1999.90;999.90;;;;;;;9.22;100.00;99580.66;5111500;28;20043;-76
2022/11/11 00:08:47;;;;;;;1999.90;999.90;;;;;;;9.21;100.00;99576.28;5113459;28;20108;-75
2022/11/11 00:11:14;;;;;;;1999.90;999.90;;;;;;;9.19;100.00;99581.97;5116622;28;20050;-75
2022/11/11 00:13:41;;;;;;;1999.90;999.90;;;;;;;9.22;100.00;99592.41;5114595;28;20038;-76
2022/11/11 00:16:09;;;;;;;1999.90;999.90;;;;;;;9.17;100.00;99578.69;5113277;28;20035;-77
2022/11/11 00:26:48;;;;;;;1999.90;999.90;;;;;;;9.14;100.00;99601.00;5111337;28;20139;-75
2022/11/11 00:29:13;;;;;;;1999.90;999.90;;;;;;;9.10;100.00;99594.38;5111372;28;20091;-74
2022/11/11 00:32:21;;;;;;;1999.90;999.90;;;;;;;9.17;100.00;99600.50;5111381;28;20055;-75
2022/11/11 00:34:24;;;;;;;1999.90;999.90;;;;;;;9.18;100.00;99599.41;5111248;28;20071;-75
2022/11/11 00:36:50;;;;;;;1999.90;999.90;;;;;;;9.14;100.00;99595.53;5111609;28;20067;-77
2022/11/11 00:39:15;;;;;;;1999.90;999.90;;;;;;;9.09;100.00;99598.16;5112007;28;20031;-77
2022/11/11 00:41:40;;;;;;;1999.90;999.90;;;;;;;9.11;100.00;99606.97;5111694;28;20479;-77
2022/11/11 00:44:06;;;;;;;1999.90;999.90;;;;;;;9.05;100.00;99608.75;5113694;28;20464;-74
2022/11/11 00:51:59;;;;;;;1999.90;999.90;;;;;;;9.00;100.00;99610.56;5114948;28;20074;-74
2022/11/11 00:54:24;;;;;;;1999.90;999.90;;;;;;;9.05;100.00;99614.19;5106140;28;20059;-75
2022/11/11 00:56:50;;;;;;;1999.90;999.90;;;;;;;9.06;100.00;99615.03;5096512;28;20028;-75
2022/11/11 00:59:15;;;;;;;1999.90;999.90;;;;;;;9.05;100.00;99619.66;5095103;28;20465;-75
2022/11/11 01:01:40;;;;;;;1999.90;999.90;;;;;;;9.01;100.00;99625.88;5101023;28;20427;-78
2022/11/11 01:04:06;;;;;;;1999.90;999.90;;;;;;;9.00;100.00;99616.00;5097895;28;20044;-75
2022/11/11 01:06:31;;;;;;;1999.90;999.90;;;;;;;9.03;100.00;99610.91;5095247;28;20040;-75
2022/11/11 01:08:57;;;;;;;1999.90;999.90;;;;;;;8.94;100.00;99608.81;5096428;28;20477;-76
2022/11/11 01:11:23;;;;;;;1999.90;999.90;;;;;;;8.91;100.00;99601.09;5100948;28;20032;-76
2022/11/11 01:13:49;;;;;;;1999.90;999.90;;;;;;;8.96;100.00;99596.56;5101061;28;20119;-76
2022/11/11 01:16:19;;;;;;;1999.90;999.90;;;;;;;8.94;100.00;99589.69;5100410;28;20044;-75
2022/11/11 01:18:44;;;;;;;1999.90;999.90;;;;;;;8.96;100.00;99582.09;5096093;28;20032;-81
2022/11/11 01:21:15;;;;;;;1999.90;999.90;;;;;;;9.03;100.00;99582.78;5101770;28;20020;-75
2022/11/11 01:23:42;;;;;;;1999.90;999.90;;;;;;;8.94;100.00;99586.97;5102413;28;20030;-76
2022/11/11 01:26:27;;;;;;;1999.90;999.90;;;;;;;8.95;100.00;99594.94;5102332;28;20036;-75
2022/11/11 01:28:54;;;;;;;1999.90;999.90;;;;;;;8.98;100.00;99599.06;5099430;28;20052;-75
2022/11/11 01:31:22;;;;;;;1999.90;999.90;;;;;;;8.98;100.00;99601.78;5100171;28;20032;-75
2022/11/11 01:33:47;;;;;;;1999.90;999.90;;;;;;;9.02;100.00;99592.84;5093023;28;20023;-76
2022/11/11 01:36:18;;;;;;;1999.90;999.90;;;;;;;8.99;100.00;99582.44;5094715;28;20054;-76
2022/11/11 01:38:48;;;;;;;1999.90;999.90;;;;;;;9.02;100.00;99584.66;5093067;28;20024;-76
2022/11/11 01:41:34;;;;;;;1999.90;999.90;;;;;;;8.98;100.00;99583.53;5092578;28;20111;-75
2022/11/11 01:44:11;;;;;;;1999.90;999.90;;;;;;;8.99;100.00;99578.91;5092781;28;20028;-74
2022/11/11 01:46:44;;;;;;;1999.90;999.90;;;;;;;8.98;100.00;99579.97;5094359;28;20035;-74
2022/11/11 01:49:21;;;;;;;1999.90;999.90;;;;;;;8.94;100.00;99578.78;5099677;28;20030;-74
2022/11/11 01:51:52;;;;;;;1999.90;999.90;;;;;;;8.95;100.00;99580.44;5113489;28;20424;-75
2022/11/11 01:54:34;;;;;;;1999.90;999.90;;;;;;;8.89;100.00;99568.63;5116696;28;20086;-80
2022/11/11 01:57:24;;;;;;;1999.90;999.90;;;;;;;8.83;100.00;99574.22;5115478;28;20541;-74
2022/11/11 01:59:59;;;;;;;1999.90;999.90;;;;;;;8.67;100.00;99564.09;5112833;28;20019;-76
2022/11/11 02:03:07;;;;;;;1999.90;999.90;;;;;;;8.67;100.00;99555.91;5113072;28;20031;-75
2022/11/11 02:05:42;;;;;;;1999.90;999.90;;;;;;;8.62;100.00;99562.06;5101541;28;20267;-77
2022/11/11 02:08:33;;;;;;;1999.90;999.90;;;;;;;8.63;100.00;99549.28;5112873;28;20126;-77
2022/11/11 02:11:12;;;;;;;1999.90;999.90;;;;;;;8.70;100.00;99549.97;5112466;28;20118;-75
2022/11/11 02:16:24;;;;;;;1999.90;999.90;;;;;;;8.79;100.00;99562.13;5112414;28;20034;-74
2022/11/11 02:18:50;;;;;;;1999.90;999.90;;;;;;;8.68;100.00;99552.91;5112142;28;20016;-74
2022/11/11 02:21:24;;;;;;;1999.90;999.90;;;;;;;8.60;100.00;99559.59;5112104;28;20046;-74
2022/11/11 02:23:54;;;;;;;1999.90;999.90;;;;;;;8.62;100.00;99553.88;5112300;28;20115;-76
2022/11/11 02:26:21;;;;;;;1999.90;999.90;;;;;;;8.69;100.00;99554.59;5112164;28;20507;-77
2022/11/11 02:28:47;;;;;;;1999.90;999.90;;;;;;;8.52;100.00;99557.25;5112299;28;20034;-74
2022/11/11 02:31:13;;;;;;;1999.90;999.90;;;;;;;8.50;100.00;99556.66;5111983;28;20031;-75
2022/11/11 02:33:38;;;;;;;1999.90;999.90;;;;;;;8.47;100.00;99559.88;5104963;28;20074;-75
2022/11/11 02:36:04;;;;;;;1999.90;999.90;;;;;;;8.43;100.00;99564.16;5103865;28;20032;-77
2022/11/11 02:38:30;;;;;;;1999.90;999.90;;;;;;;8.38;100.00;99563.22;5111924;28;20035;-76
2022/11/11 02:43:39;;;;;;;1999.90;999.90;;;;;;;8.52;100.00;99559.97;5090484;28;20077;-75
2022/11/11 02:46:06;;;;;;;1999.90;999.90;;;;;;;8.58;100.00;99563.66;5090972;28;20028;-78
2022/11/11 02:48:31;;;;;;;1999.90;999.90;;;;;;;8.60;100.00;99556.88;5091012;28;20488;-76
2022/11/11 02:50:57;;;;;;;1999.90;999.90;;;;;;;8.66;100.00;99559.69;5092642;28;20035;-77
2022/11/11 02:53:23;;;;;;;1999.90;999.90;;;;;;;8.66;100.00;99565.16;5111555;28;20059;-80
2022/11/11 02:55:48;;;;;;;1999.90;999.90;;;;;;;8.66;100.00;99554.25;5111276;28;20027;-76
2022/11/11 02:58:14;;;;;;;1999.90;999.90;;;;;;;8.69;100.00;99559.19;5111214;28;20197;-78
2022/11/11 03:00:41;;;;;;;1999.90;999.90;;;;;;;8.70;100.00;99560.88;5111113;28;20115;-76
2022/11/11 03:03:07;;;;;;;1999.90;999.90;;;;;;;8.61;100.00;99555.78;5111000;28;20034;-78
2022/11/11 03:05:32;;;;;;;1999.90;999.90;;;;;;;8.66;100.00;99559.69;5110574;28;20122;-77
2022/11/11 03:07:57;;;;;;;1999.90;999.90;;;;;;;8.67;100.00;99558.63;5111123;28;20031;-75
2022/11/11 03:10:23;;;;;;;1999.90;999.90;;;;;;;8.66;100.00;99557.78;5111051;28;20051;-75
2022/11/11 03:12:48;;;;;;;1999.90;999.90;;;;;;;8.61;100.00;99553.06;5110102;28;20027;-76
2022/11/11 03:15:14;;;;;;;1999.90;999.90;;;;;;;8.61;100.00;99558.50;5110667;28;20069;-78
2022/11/11 03:17:39;;;;;;;1999.90;999.90;;;;;;;8.60;100.00;99558.78;5110784;28;20031;-77
2022/11/11 03:23:05;;;;;;;1999.90;999.90;;;;;;;8.55;100.00;99554.03;5110772;28;20085;-75
2022/11/11 03:25:37;;;;;;;1999.90;999.90;;;;;;;8.54;100.00;99557.84;5110701;28;20016;-75
2022/11/11 03:28:16;;;;;;;1999.90;999.90;;;;;;;8.54;100.00;99560.56;5110734;28;20020;-77
2022/11/11 03:30:44;;;;;;;1999.90;999.90;;;;;;;8.58;100.00;99571.84;5110326;28;20039;-77
2022/11/11 03:33:11;;;;;;;1999.90;999.90;;;;;;;8.57;100.00;99568.28;5110993;28;20043;-76
2022/11/11 03:35:36;;;;;;;1999.90;999.90;;;;;;;8.56;100.00;99573.97;5110678;28;20081;-76
2022/11/11 03:38:23;;;;;;;1999.90;999.90;;;;;;;8.60;100.00;99580.59;5111175;28;20472;-75
2022/11/11 03:40:54;;;;;;;1999.90;999.90;;;;;;;8.57;100.00;99573.72;5110567;28;20067;-75
2022/11/11 03:43:20;;;;;;;1999.90;999.90;;;;;;;8.57;100.00;99573.72;5110821;28;21527;-76
2022/11/11 03:45:47;;;;;;;1999.90;999.90;;;;;;;8.60;100.00;99572.41;5110698;28;20032;-74
2022/11/11 03:48:12;;;;;;;1999.90;999.90;;;;;;;8.60;100.00;99565.06;5110874;28;20024;-74
2022/11/11 03:50:38;;;;;;;1999.90;999.90;;;;;;;8.61;100.00;99563.97;5110972;28;20440;-75
2022/11/11 03:53:05;;;;;;;1999.90;999.90;;;;;;;8.60;100.00;99569.69;5110617;28;20031;-75
2022/11/11 03:55:30;;;;;;;1999.90;999.90;;;;;;;8.58;100.00;99569.09;5110648;28;20027;-74
2022/11/11 03:57:56;;;;;;;1999.90;999.90;;;;;;;8.65;100.00;99568.94;5110457;28;20019;-75
2022/11/11 04:00:24;;;;;;;1999.90;999.90;;;;;;;8.49;100.00;99574.09;5110764;28;20024;-76
2022/11/11 04:11:12;;;;;;;1999.90;999.90;;;;;;;8.41;100.00;99579.09;5111020;28;20034;-83
2022/11/11 04:16:24;;;;;;;1999.90;999.90;;;;;;;8.33;100.00;99569.38;5110796;28;20085;-74
2022/11/11 04:21:42;;;;;;;1999.90;999.90;;;;;;;8.25;100.00;99567.03;5114657;28;20085;-77
2022/11/11 04:26:58;;;;;;;1999.90;999.90;;;;;;;8.18;100.00;99579.09;5114687;28;20057;-78
2022/11/11 04:29:30;;;;;;;1999.90;999.90;;;;;;;8.15;100.00;99574.13;5114299;28;20028;-76
2022/11/11 04:34:51;;;;;;;1999.90;999.90;;;;;;;8.26;100.00;99579.59;5103208;28;20042;-78
2022/11/11 04:37:17;;;;;;;1999.90;999.90;;;;;;;8.19;100.00;99586.22;5094427;28;20027;-75
2022/11/11 04:42:28;;;;;;;1999.90;999.90;;;;;;;8.25;100.00;99571.63;5114066;28;20165;-75
2022/11/11 04:47:37;;;;;;;1999.90;999.90;;;;;;;8.13;100.00;99574.41;5113994;28;20034;-78
2022/11/11 04:50:04;;;;;;;1999.90;999.90;;;;;;;8.15;100.00;99569.53;5113943;28;20020;-76
2022/11/11 04:52:30;;;;;;;1999.90;999.90;;;;;;;8.15;100.00;99569.53;5114056;28;20028;-76
2022/11/11 04:57:46;;;;;;;1999.90;999.90;;;;;;;8.02;100.00;99572.50;5113686;28;20038;-77
2022/11/11 05:00:14;;;;;;;1999.90;999.90;;;;;;;7.97;100.00;99578.69;5113876;28;20036;-75
2022/11/11 05:05:24;;;;;;;1999.90;999.90;;;;;;;8.02;100.00;99580.66;5113779;28;20072;-77
2022/11/11 05:10:34;;;;;;;1999.90;999.90;;;;;;;8.18;100.00;99585.41;5113487;28;20039;-78
2022/11/11 05:21:21;;;;;;;1999.90;999.90;;;;;;;8.17;100.00;99593.81;5113338;28;20030;-76
2022/11/11 05:26:34;;;;;;;1999.90;999.90;;;;;;;8.21;100.00;99600.44;5113766;28;20055;-75
2022/11/11 05:29:00;;;;;;;1999.90;999.90;;;;;;;8.16;100.00;99603.06;5112496;28;20559;-75
2022/11/11 05:31:26;;;;;;;1999.90;999.90;;;;;;;8.21;100.00;99605.88;5111633;28;20043;-75
2022/11/11 05:33:51;;;;;;;1999.90;999.90;;;;;;;8.23;100.00;99601.88;5104152;28;20473;-75
2022/11/11 05:36:17;;;;;;;1999.90;999.90;;;;;;;8.32;100.00;99614.09;5103802;28;20039;-75
2022/11/11 05:38:42;;;;;;;1999.90;999.90;;;;;;;8.35;100.00;99616.34;5107082;28;20022;-80
2022/11/11 05:41:08;;;;;;;1999.90;999.90;;;;;;;8.35;100.00;99624.53;5104921;28;20111;-82
2022/11/11 05:43:36;;;;;;;1999.90;999.90;;;;;;;8.25;100.00;99627.00;5101528;28;20102;-79
2022/11/11 05:46:03;;;;;;;1999.90;999.90;;;;;;;8.28;100.00;99625.72;5099968;28;20488;-75
2022/11/11 05:48:29;;;;;;;1999.90;999.90;;;;;;;8.35;100.00;99627.25;5101903;28;20026;-74
2022/11/11 05:50:57;;;;;;;1999.90;999.90;;;;;;;8.42;100.00;99627.97;5107334;28;20103;-78
2022/11/11 05:53:22;;;;;;;1999.90;999.90;;;;;;;8.47;100.00;99633.50;5110747;28;20525;-78
2022/11/11 05:55:51;;;;;;;1999.90;999.90;;;;;;;8.45;100.00;99638.38;5108655;28;20024;-80
2022/11/11 05:58:17;;;;;;;1999.90;999.90;;;;;;;8.40;100.00;99643.72;5085118;28;20023;-77
2022/11/11 06:00:43;;;;;;;1999.90;999.90;;;;;;;8.32;100.00;99646.81;5106240;28;20035;-76
2022/11/11 06:03:11;;;;;;;1999.90;999.90;;;;;;;8.36;100.00;99641.72;5099264;28;20024;-78
2022/11/11 06:05:37;;;;;;;1999.90;999.90;;;;;;;8.40;100.00;99646.44;5111371;28;20031;-77
2022/11/11 06:08:03;;;;;;;1999.90;999.90;;;;;;;8.34;100.00;99655.56;5112522;28;20051;-77
2022/11/11 06:10:31;;;;;;;1999.90;999.90;;;;;;;8.29;100.00;99658.19;5102983;28;20130;-77
2022/11/11 06:13:01;;;;;;;1999.90;999.90;;;;;;;8.17;100.00;99654.63;5104330;28;20043;-80
2022/11/11 06:15:41;;;;;;;1999.90;999.90;;;;;;;8.19;100.00;99668.00;5110787;28;20024;-75
2022/11/11 06:18:06;;;;;;;1999.90;999.90;;;;;;;8.25;100.00;99662.44;5100608;28;20031;-76
2022/11/11 06:20:35;;;;;;;1999.90;999.90;;;;;;;8.19;100.00;99659.81;5103211;28;20023;-76
2022/11/11 06:23:02;;;;;;;1999.90;999.90;;;;;;;8.11;100.00;99669.19;5099207;28;20054;-75
2022/11/11 06:28:15;;;;;;;1999.90;999.90;;;;;;;8.18;100.00;99696.31;5101868;28;20114;-81
2022/11/11 06:30:41;;;;;;;1999.90;999.90;;;;;;;8.12;100.00;99689.91;5115025;28;20027;-79
2022/11/11 06:33:08;;;;;;;1999.90;999.90;;;;;;;8.19;100.00;99701.53;5112417;28;20030;-75
2022/11/11 06:35:34;;;;;;;1999.90;999.90;;;;;;;8.19;100.00;99698.81;5103588;28;20020;-79
2022/11/11 06:38:04;;;;;;;1999.90;999.90;;;;;;;8.14;100.00;99698.69;5095549;28;20035;-80
2022/11/11 06:40:29;;;;;;;1999.90;999.90;;;;;;;8.03;100.00;99696.78;5094763;28;20055;-78
2022/11/11 06:42:59;;;;;;;1999.90;999.90;;;;;;;8.06;100.00;99693.59;5094260;28;20015;-77
2022/11/11 06:45:26;;;;;;;1999.90;999.90;;;;;;;8.09;100.00;99699.41;5099464;28;20024;-76
2022/11/11 06:47:51;;;;;;;1999.90;999.90;;;;;;;8.06;100.00;99707.22;5101433;28;20020;-76
2022/11/11 06:50:17;;;;;;;1999.90;999.90;;;;;;;8.03;100.00;99697.63;5111204;28;20027;-77
2022/11/11 06:52:43;;;;;;;1999.90;999.90;;;;;;;8.12;100.00;99700.81;5107432;28;20108;-76
2022/11/11 06:55:09;;;;;;;1999.90;999.90;;;;;;;8.26;100.00;99698.69;5115442;28;20101;-78
2022/11/11 06:57:35;;;;;;;1999.90;999.90;;;;;;;8.25;100.00;99688.84;5105979;28;20104;-79
2022/11/11 07:00:00;;;;;;;1999.90;999.90;;;;;;;8.28;100.00;99704.75;5098562;27;20027;-77
2022/11/11 07:02:25;;;;;;;1999.90;999.90;;;;;;;8.37;100.00;99703.34;5090344;28;20047;-78
2022/11/11 07:04:51;;;;;;;1999.90;999.90;;;;;;;8.43;100.00;99705.94;5091755;28;20055;-75
2022/11/11 07:07:16;;;;;;;1999.90;999.90;;;;;;;8.36;100.00;99720.78;5090790;28;20054;-76
2022/11/11 07:09:42;;;;;;;1999.90;999.90;;;;;;;8.39;100.00;99723.03;5090305;28;20400;-81
2022/11/11 07:12:07;;;;;;;1999.90;999.90;;;;;;;8.38;100.00;99732.28;5090238;28;20024;-76
2022/11/11 07:14:33;;;;;;;1999.90;999.90;;;;;;;8.41;100.00;99727.16;5090234;28;20031;-76
2022/11/11 07:16:58;;;;;;;1999.90;999.90;;;;;;;8.58;100.00;99727.28;5090297;28;20064;-76
2022/11/11 07:19:24;;;;;;;1999.90;999.90;;;;;;;8.73;100.00;99729.50;5090077;28;20464;-77
2022/11/11 07:21:49;;;;;;;1999.90;999.90;;;;;;;8.88;100.00;99735.28;5079560;28;20782;-77
2022/11/11 07:24:14;;;;;;;1999.90;999.90;;;;;;;8.85;100.00;99733.06;5103402;28;20066;-76
2022/11/11 07:26:41;;;;;;;1999.90;999.90;;;;;;;8.80;100.00;99730.22;5110463;28;20020;-76
2022/11/11 07:29:06;;;;;;;1999.90;999.90;;;;;;;8.82;100.00;99728.91;5110446;28;20373;-76
2022/11/11 07:31:31;;;;;;;1999.90;999.90;;;;;;;8.90;100.00;99719.50;5110124;28;20031;-75
2022/11/11 07:33:57;;;;;;;1999.90;999.90;;;;;;;8.96;100.00;99724.00;5108822;28;20026;-74
2022/11/11 07:36:22;;;;;;;1999.90;999.90;;;;;;;8.92;100.00;99723.69;5109840;28;20391;-76
2022/11/11 07:38:47;;;;;;;1999.90;999.90;;;;;;;8.95;100.00;99725.09;5110633;28;20080;-73
2022/11/11 07:41:13;;;;;;;1999.90;999.90;;;;;;;9.06;100.00;99724.22;5109701;28;20031;-76
2022/11/11 07:43:38;;;;;;;1999.90;999.90;;;;;;;9.12;100.00;99728.69;5110067;28;20032;-76
2022/11/11 07:46:04;;;;;;;1999.90;999.90;;;;;;;9.19;100.00;99721.22;5110217;28;20476;-76
2022/11/11 07:48:29;;;;;;;1999.90;999.90;;;;;;;9.11;100.00;99727.06;5089398;28;20025;-75
2022/11/11 07:50:54;;;;;;;1999.90;999.90;;;;;;;9.10;100.00;99730.84;5090245;28;20021;-76
2022/11/11 07:53:20;;;;;;;1999.90;999.90;;;;;;;9.13;100.00;99727.63;5092865;28;20028;-75
2022/11/11 07:55:45;;;;;;;1999.90;999.90;;;;;;;9.15;100.00;99725.50;5094113;28;20354;-76
2022/11/11 07:58:11;;;;;;;1999.90;999.90;;;;;;;9.28;100.00;99727.94;5093899;28;20187;-76
2022/11/11 08:00:36;;;;;;;1999.90;999.90;;;;;;;9.42;100.00;99728.50;5078737;28;20036;-76
2022/11/11 08:03:02;;;;;;;1999.90;999.90;;;;;;;9.46;100.00;99732.41;5114682;28;20039;-76
2022/11/11 08:05:27;;;;;;;1999.90;999.90;;;;;;;9.44;100.00;99721.69;5102920;28;20080;-86
2022/11/11 08:07:52;;;;;;;1999.90;999.90;;;;;;;9.68;100.00;99734.16;5124673;28;20119;-82
2022/11/11 08:10:18;;;;;;;1999.90;999.90;;;;;;;9.79;100.00;99735.19;5124199;28;20035;-84
2022/11/11 08:15:28;;;;;;;1999.90;999.90;;;;;;;10.02;100.00;99740.50;5119115;28;20087;-88
2022/11/11 08:17:53;;;;;;;1999.90;999.90;;;;;;;10.13;100.00;99739.63;5116897;28;20035;-77
2022/11/11 08:20:18;;;;;;;1999.90;999.90;;;;;;;10.10;100.00;99739.28;5118694;28;20019;-88
2022/11/11 08:22:44;;;;;;;1999.90;999.90;;;;;;;10.13;100.00;99741.50;5121200;28;20028;-83
2022/11/11 08:25:13;;;;;;;1999.90;999.90;;;;;;;10.16;100.00;99743.78;5111495;28;20028;-83
2022/11/11 08:27:39;;;;;;;1999.90;999.90;;;;;;;10.23;100.00;99749.09;5100337;28;20042;-87
2022/11/11 08:30:06;;;;;;;1999.90;999.90;;;;;;;10.28;100.00;99743.69;5105608;28;20020;-83
2022/11/11 08:32:32;;;;;;;1999.90;999.90;;;;;;;10.32;100.00;99756.63;5103016;28;20101;-86
2022/11/11 08:34:57;;;;;;;1999.90;999.90;;;;;;;10.29;100.00;99745.34;5103612;28;20028;-82
2022/11/11 08:37:23;;;;;;;1999.90;999.90;;;;;;;10.17;100.00;99742.72;5107448;28;20120;-76
2022/11/11 08:39:48;;;;;;;1999.90;999.90;;;;;;;10.18;100.00;99755.28;5114183;28;20032;-77
2022/11/11 08:42:14;;;;;;;1999.90;999.90;;;;;;;10.38;100.00;99752.88;5114449;28;20023;-77
2022/11/11 08:44:39;;;;;;;1999.90;999.90;;;;;;;10.51;100.00;99759.94;5112819;28;20034;-77
2022/11/11 08:47:04;;;;;;;1999.90;999.90;;;;;;;10.73;100.00;99747.97;5113533;28;20114;-76
2022/11/11 08:49:30;;;;;;;1999.90;999.90;;;;;;;10.81;100.00;99754.88;5114142;28;20027;-76
2022/11/11 08:51:55;;;;;;;1999.90;999.90;;;;;;;10.81;100.00;99754.09;5099450;28;20507;-76
2022/11/11 08:54:20;;;;;;;1999.90;999.90;;;;;;;10.86;100.00;99745.94;5093967;28;20024;-76
2022/11/11 08:56:46;;;;;;;1999.90;999.90;;;;;;;10.94;100.00;99748.22;5093991;28;20118;-79
2022/11/11 08:59:11;;;;;;;1999.90;999.90;;;;;;;10.92;100.00;99744.91;5096067;28;20427;-77
2022/11/11 09:01:36;;;;;;;1999.90;999.90;;;;;;;10.95;100.00;99750.72;5094958;28;20405;-76
2022/11/11 09:04:02;;;;;;;1999.90;999.90;;;;;;;10.82;100.00;99756.56;5091990;28;20051;-77
2022/11/11 09:06:28;;;;;;;1999.90;999.90;;;;;;;10.75;100.00;99759.47;5093101;28;20055;-76
2022/11/11 09:08:53;;;;;;;1999.90;999.90;;;;;;;10.88;100.00;99750.06;5093950;28;20476;-75
2022/11/11 09:11:19;;;;;;;1999.90;999.90;;;;;;;11.10;100.00;99761.03;5092846;28;20024;-75
2022/11/11 09:13:46;;;;;;;1999.90;999.90;;;;;;;11.26;100.00;99771.09;5093242;28;20048;-75
2022/11/11 09:16:11;;;;;;;1999.90;999.90;;;;;;;11.34;100.00;99753.41;5093018;28;20028;-76
2022/11/11 09:18:37;;;;;;;1999.90;999.90;;;;;;;11.50;100.00;99752.47;5092762;28;20058;-76
2022/11/11 09:21:02;;;;;;;1999.90;999.90;;;;;;;11.77;100.00;99759.69;5092983;28;20028;-78
2022/11/11 09:23:29;;;;;;;1999.90;999.90;;;;;;;11.92;100.00;99760.91;5092866;28;20070;-75
2022/11/11 09:25:54;;;;;;;1999.90;999.90;;;;;;;11.94;100.00;99759.56;5092789;28;20024;-75
2022/11/11 09:28:21;;;;;;;1999.90;999.90;;;;;;;11.92;100.00;99760.91;5092783;28;20460;-76
2022/11/11 09:30:46;;;;;;;1999.90;999.90;;;;;;;11.91;100.00;99772.94;5092845;28;20040;-78
2022/11/11 09:33:14;;;;;;;1999.90;999.90;;;;;;;11.85;100.00;99771.25;5092770;28;20024;-75
2022/11/11 09:35:39;;;;;;;1999.90;999.90;;;;;;;11.63;100.00;99772.09;5092418;28;20065;-79
2022/11/11 09:38:05;;;;;;;1999.90;999.90;;;;;;;11.66;100.00;99768.84;5093063;28;20439;-75
2022/11/11 09:41:03;;;;;;;1999.90;999.90;;;;;;;11.85;100.00;99787.69;5092625;28;20062;-75
2022/11/11 09:43:40;;;;;;;1999.90;999.90;;;;;;;11.80;100.00;99772.88;5074562;28;20043;-77
2022/11/11 09:46:23;;;;;;;1999.90;999.90;;;;;;;11.98;100.00;99787.28;5092442;28;20107;-77
2022/11/11 09:49:28;;;;;;;1999.90;999.90;;;;;;;11.87;100.00;99780.91;5092950;28;20024;-76
2022/11/11 09:51:58;;;;;;;1999.90;999.90;;;;;;;11.68;100.00;99771.34;5092367;28;20048;-79
2022/11/11 09:54:48;;;;;;;1999.90;999.90;;;;;;;11.83;100.00;99771.53;5092356;28;20028;-76
2022/11/11 09:57:43;;;;;;;1999.90;999.90;;;;;;;12.01;100.00;99784.03;5081859;28;20044;-77
2022/11/11 10:00:18;;;;;;;1999.90;999.90;;;;;;;12.01;100.00;99778.53;5082937;28;20046;-76
2022/11/11 10:02:52;;;;;;;1999.90;999.90;;;;;;;12.07;100.00;99775.59;5092244;28;20046;-75
2022/11/11 10:05:23;;;;;;;1999.90;999.90;;;;;;;12.28;100.00;99779.34;5092305;28;20031;-77
2022/11/11 10:07:57;;;;;;;1999.90;999.90;;;;;;;12.29;100.00;99778.25;5092040;28;20056;-77
2022/11/11 10:10:38;;;;;;;1999.90;999.90;;;;;;;12.35;100.00;99772.56;5097830;28;20032;-77
2022/11/11 10:13:13;;;;;;;1999.90;999.90;;;;;;;12.45;100.00;99776.47;5102010;28;20057;-76
2022/11/11 10:16:04;;;;;;;1999.90;999.90;;;;;;;12.80;100.00;99774.81;5097520;28;20020;-75
2022/11/11 10:18:44;;;;;;;1999.90;999.90;;;;;;;13.03;100.00;99761.75;5092888;28;20067;-76
2022/11/11 10:21:21;;;;;;;1999.90;999.90;;;;;;;13.33;100.00;99761.94;5101242;28;20035;-75
2022/11/11 10:23:48;;;;;;;1999.90;999.90;;;;;;;13.67;100.00;99752.16;5105923;28;20026;-77
2022/11/11 10:26:27;;;;;;;1999.90;999.90;;;;;;;14.01;100.00;99757.97;5100331;28;20032;-75
2022/11/11 10:28:52;;;;;;;1999.90;999.90;;;;;;;14.29;100.00;99751.13;5101530;28;20119;-75
2022/11/11 10:31:22;;;;;;;1999.90;999.90;;;;;;;14.43;100.00;99755.84;5109332;28;20162;-75
2022/11/11 10:34:04;;;;;;;1999.90;999.90;;;;;;;14.85;100.00;99760.19;5108479;28;21498;-80
2022/11/11 10:36:30;;;;;;;1999.90;999.90;;;;;;;15.24;100.00;99752.09;5104262;28;20032;-76
2022/11/11 10:38:58;;;;;;;1999.90;999.90;;;;;;;15.16;100.00;99759.00;5105735;28;20166;-79
2022/11/11 10:41:44;;;;;;;1999.90;999.90;;;;;;;15.28;100.00;99750.41;5104927;28;20129;-76
2022/11/11 10:44:22;;;;;;;1999.90;999.90;;;;;;;15.01;100.00;99746.09;5099136;28;20034;-75
2022/11/11 10:47:02;;;;;;;1999.90;999.90;;;;;;;14.99;100.00;99737.28;5100072;28;20024;-76
2022/11/11 10:49:32;;;;;;;1999.90;999.90;;;;;;;14.73;100.00;99734.84;5099864;28;20853;-75
2022/11/11 10:52:08;;;;;;;1999.90;999.90;;;;;;;14.64;100.00;99736.53;5098977;28;20030;-74
2022/11/11 10:55:04;;;;;;;1999.90;999.90;;;;;;;14.73;100.00;99735.69;5097619;28;20024;-75
2022/11/11 10:57:32;;;;;;;1999.90;999.90;;;;;;;15.03;100.00;99732.84;5099058;28;20043;-76
2022/11/11 11:00:14;;;;;;;1999.90;999.90;;;;;;;14.93;100.00;99732.91;5082517;28;20028;-77
2022/11/11 11:02:50;;;;;;;1999.90;999.90;;;;;;;15.01;100.00;99740.56;5101734;28;20028;-75
2022/11/11 11:05:26;;;;;;;1999.90;999.90;;;;;;;15.08;100.00;99731.19;5097404;28;20058;-74
2022/11/11 11:08:01;;;;;;;;;;;;;;;15.05;100.00;99734.50;5097883;28;20078;-73
2022/11/11 11:10:49;;;;;;;1999.90;999.90;;;;;;;15.18;100.00;99734.75;5099137;28;19915;-75
2022/11/11 11:13:22;;;;;;;1999.90;999.90;;;;;;;15.45;100.00;99735.16;5098392;28;20034;-74
2022/11/11 11:15:55;;;;;;;1999.90;999.90;;;;;;;15.54;100.00;99732.66;5099683;28;20456;-75
2022/11/11 11:18:21;;;;;;;1999.90;999.90;;;;;;;15.56;100.00;99735.97;5098594;28;20028;-76
2022/11/11 11:20:56;;;;;;;1999.90;999.90;;;;;;;15.49;100.00;99739.03;5100257;28;20417;-75
2022/11/11 11:23:38;;;;;;;1999.90;999.90;;;;;;;15.46;100.00;99736.00;5101003;28;20032;-76
2022/11/11 11:26:04;;;;;;;1999.90;999.90;;;;;;;15.48;100.00;99733.81;5098328;28;20028;-76
2022/11/11 11:28:30;;;;;;;1999.90;999.90;;;;;;;15.47;100.00;99735.72;5098528;28;20020;-77
2022/11/11 11:31:04;;;;;;;1999.90;999.90;;;;;;;15.59;100.00;99735.41;5100115;28;20028;-75
2022/11/11 11:33:55;;;;;;;1999.90;999.90;;;;;;;15.61;100.00;99732.34;5102404;28;20156;-72
2022/11/11 11:36:21;;;;;;;1999.90;999.90;;;;;;;15.55;100.00;99717.78;5101747;28;20024;-75
2022/11/11 11:38:54;;;;;;;1999.90;999.90;;;;;;;15.56;100.00;99715.84;5101002;28;20542;-76
2022/11/11 11:41:39;;;;;;;1999.90;999.90;;;;;;;15.35;100.00;99723.34;5095628;28;20127;-75
2022/11/11 11:44:31;;;;;;;1999.90;999.90;;;;;;;15.21;100.00;99738.84;5103526;28;20020;-75
2022/11/11 11:47:41;;;;;;;1999.90;999.90;;;;;;;15.51;100.00;99728.53;5099451;28;20028;-80
2022/11/11 11:50:15;;;;;;;1999.90;999.90;;;;;;;15.52;100.00;99729.38;5080648;28;20496;-76
2022/11/11 11:52:59;;;;;;;1999.90;999.90;;;;;;;15.50;100.00;99726.09;5101121;28;20076;-74
2022/11/11 11:55:34;;;;;;;1999.90;999.90;;;;;;;14.95;100.00;99716.06;5100001;28;20107;-76
2022/11/11 11:57:59;;;;;;;;;;;;;;;15.02;100.00;99717.44;5099418;28;20469;-75
2022/11/11 12:00:29;;;;;;;;;;;;;;;14.59;100.00;99714.50;5101166;28;19926;-74
2022/11/11 12:03:00;;;;;;;1999.90;999.90;;;;;;;14.42;100.00;99709.28;5102407;28;20576;-75
2022/11/11 12:05:43;;;;;;;1999.90;999.90;;;;;;;14.49;100.00;99704.34;5101881;28;20023;-76
2022/11/11 12:08:24;;;;;;;1999.90;999.90;;;;;;;14.41;100.00;99705.72;5098355;28;20052;-75
2022/11/11 12:11:14;;;;;;;1999.90;999.90;;;;;;;14.44;100.00;99709.84;5102639;28;20103;-75
2022/11/11 12:14:16;;;;;;;1999.90;999.90;;;;;;;14.35;100.00;99693.06;5097173;28;20050;-76
2022/11/11 12:16:49;;;;;;;1999.90;999.90;;;;;;;14.42;100.00;99693.59;5104034;28;20038;-75